createdAt,value
2018-01-19T00:01:51.398Z,1.80
2018-01-19T00:04:19.533Z,1.80
2018-01-19T00:06:47.687Z,1.80
2018-01-19T00:09:15.836Z,1.80
2018-01-19T00:11:43.993Z,1.80
2018-01-19T00:14:12.129Z,1.80
2018-01-19T00:16:40.281Z,1.80
2018-01-19T00:19:08.430Z,1.80
2018-01-19T00:21:36.601Z,1.80
2018-01-19T00:24:04.754Z,1.80
2018-01-19T00:26:32.925Z,1.80
2018-01-19T00:29:01.825Z,1.70
2018-01-19T00:31:29.977Z,1.70
2018-01-19T00:33:58.889Z,1.70
2018-01-19T00:36:27.053Z,1.70
2018-01-19T00:38:55.953Z,1.70
2018-01-19T00:41:24.110Z,1.70
2018-01-19T00:43:53.015Z,1.70
2018-01-19T00:46:21.169Z,1.70
2018-01-19T00:48:50.079Z,1.70
2018-01-19T00:51:18.244Z,1.70
2018-01-19T00:53:47.146Z,1.70
2018-01-19T00:56:15.302Z,1.70
2018-01-19T00:58:44.207Z,1.70
2018-01-19T01:01:12.361Z,1.60
2018-01-19T01:03:41.261Z,1.60
2018-01-19T01:06:09.430Z,1.60
2018-01-19T01:08:38.334Z,1.60
2018-01-19T01:11:06.489Z,1.60
2018-01-19T01:13:35.393Z,1.60
2018-01-19T01:16:03.553Z,1.60
2018-01-19T01:18:32.462Z,1.50
2018-01-19T01:21:00.629Z,1.60
2018-01-19T01:23:29.526Z,1.60
2018-01-19T01:25:57.658Z,1.50
2018-01-19T01:28:25.821Z,1.50
2018-01-19T01:30:53.962Z,1.50
2018-01-19T01:33:22.120Z,1.50
2018-01-19T01:35:50.253Z,1.50
2018-01-19T01:38:18.418Z,1.50
2018-01-19T01:40:46.550Z,1.50
2018-01-19T01:43:14.710Z,1.50
2018-01-19T01:45:42.847Z,1.50
2018-01-19T01:48:10.997Z,1.50
2018-01-19T01:50:39.128Z,1.50
2018-01-19T01:53:07.287Z,1.50
2018-01-19T01:55:35.417Z,1.50
2018-01-19T01:58:03.574Z,1.50
2018-01-19T02:00:31.716Z,1.50
2018-01-19T02:02:59.873Z,1.50
2018-01-19T02:05:28.011Z,1.50
2018-01-19T02:07:56.161Z,1.50
2018-01-19T02:10:24.312Z,1.50
2018-01-19T02:12:52.470Z,1.50
2018-01-19T02:15:20.596Z,1.50
2018-01-19T02:17:48.764Z,1.50
2018-01-19T02:20:16.901Z,1.50
2018-01-19T02:22:45.057Z,1.50
2018-01-19T02:25:13.192Z,1.50
2018-01-19T02:27:41.358Z,1.50
2018-01-19T02:30:09.483Z,1.50
2018-01-19T02:32:38.410Z,1.50
2018-01-19T02:35:06.550Z,1.40
2018-01-19T02:37:34.713Z,1.50
2018-01-19T02:40:02.850Z,1.50
2018-01-19T02:42:31.025Z,1.50
2018-01-19T02:44:59.156Z,1.50
2018-01-19T02:47:27.325Z,1.50
2018-01-19T02:49:55.460Z,1.50
2018-01-19T02:52:23.618Z,1.50
2018-01-19T02:54:51.749Z,1.50
2018-01-19T02:57:19.912Z,1.50
2018-01-19T02:59:48.045Z,1.50
2018-01-19T03:02:16.206Z,1.50
2018-01-19T03:04:44.353Z,1.50
2018-01-19T03:07:12.513Z,1.50
2018-01-19T03:09:40.652Z,1.50
2018-01-19T03:12:08.819Z,1.50
2018-01-19T03:14:36.956Z,1.50
2018-01-19T03:17:05.114Z,1.50
2018-01-19T03:19:33.244Z,1.50
2018-01-19T03:22:01.397Z,1.50
2018-01-19T03:24:29.534Z,1.50
2018-01-19T03:26:57.688Z,1.50
2018-01-19T03:29:25.827Z,1.50
2018-01-19T03:31:53.993Z,1.50
2018-01-19T03:34:22.126Z,1.50
2018-01-19T03:36:50.297Z,1.50
2018-01-19T03:39:18.429Z,1.50
2018-01-19T03:41:46.593Z,1.50
2018-01-19T03:44:14.725Z,1.50
2018-01-19T03:46:42.884Z,1.50
2018-01-19T03:49:11.016Z,1.50
2018-01-19T03:51:39.152Z,1.50
2018-01-19T03:54:07.312Z,1.50
2018-01-19T03:56:35.444Z,1.50
2018-01-19T03:59:03.610Z,1.50
2018-01-19T04:01:31.740Z,1.50
2018-01-19T04:03:59.906Z,1.50
2018-01-19T04:06:28.041Z,1.50
2018-01-19T04:08:56.208Z,1.50
2018-01-19T04:11:24.342Z,1.50
2018-01-19T04:13:52.496Z,1.50
2018-01-19T04:16:20.633Z,1.50
2018-01-19T04:18:48.784Z,1.50
2018-01-19T04:21:16.918Z,1.50
2018-01-19T04:23:45.099Z,1.50
2018-01-19T04:26:13.232Z,1.50
2018-01-19T04:28:41.398Z,1.50
2018-01-19T04:31:10.304Z,1.50
2018-01-19T04:33:38.467Z,1.50
2018-01-19T04:36:07.362Z,1.50
2018-01-19T04:38:35.521Z,1.50
2018-01-19T04:41:04.429Z,1.50
2018-01-19T04:43:32.588Z,1.50
2018-01-19T04:46:01.484Z,1.50
2018-01-19T04:48:30.417Z,1.50
2018-01-19T04:50:58.555Z,1.50
2018-01-19T04:53:26.710Z,1.50
2018-01-19T04:55:54.847Z,1.50
2018-01-19T04:58:23.007Z,1.50
2018-01-19T05:00:51.132Z,1.50
2018-01-19T05:03:19.288Z,1.50
2018-01-19T05:05:47.416Z,1.50
2018-01-19T05:08:15.582Z,1.50
2018-01-19T05:10:43.704Z,1.60
2018-01-19T05:13:11.867Z,1.50
2018-01-19T05:15:39.998Z,1.50
2018-01-19T05:18:08.159Z,1.50
2018-01-19T05:20:36.300Z,1.60
2018-01-19T05:23:04.457Z,1.50
2018-01-19T05:25:32.593Z,1.60
2018-01-19T05:28:00.749Z,1.50
2018-01-19T05:30:28.885Z,1.60
2018-01-19T05:32:57.046Z,1.60
2018-01-19T05:35:25.176Z,1.60
2018-01-19T05:37:53.338Z,1.60
2018-01-19T05:40:21.469Z,1.60
2018-01-19T05:42:49.646Z,1.60
2018-01-19T05:45:17.777Z,1.60
2018-01-19T05:47:45.938Z,1.60
2018-01-19T05:50:14.074Z,1.60
2018-01-19T05:52:42.248Z,1.60
2018-01-19T05:55:10.381Z,1.60
2018-01-19T05:57:38.619Z,1.60
2018-01-19T06:00:06.750Z,1.60
2018-01-19T06:02:34.913Z,1.60
2018-01-19T06:05:03.047Z,1.60
2018-01-19T06:07:31.215Z,1.60
2018-01-19T06:09:59.355Z,1.60
2018-01-19T06:12:27.505Z,1.60
2018-01-19T06:14:55.645Z,1.60
2018-01-19T06:17:23.830Z,1.60
2018-01-19T06:19:51.985Z,1.60
2018-01-19T06:22:20.874Z,1.60
2018-01-19T06:24:49.038Z,1.60
2018-01-19T06:27:17.949Z,1.70
2018-01-19T06:29:46.101Z,1.60
2018-01-19T06:32:15.007Z,1.70
2018-01-19T06:34:43.181Z,1.60
2018-01-19T06:37:11.322Z,1.70
2018-01-19T06:39:39.490Z,1.60
2018-01-19T06:42:07.623Z,1.60
2018-01-19T06:44:35.784Z,1.60
2018-01-19T06:47:03.922Z,1.60
2018-01-19T06:49:32.091Z,1.60
2018-01-19T06:52:00.226Z,1.60
2018-01-19T06:54:28.443Z,1.60
2018-01-19T06:56:56.576Z,1.60
2018-01-19T06:59:24.733Z,1.60
2018-01-19T07:01:52.901Z,1.60
2018-01-19T07:04:21.089Z,1.60
2018-01-19T07:06:49.229Z,1.60
2018-01-19T07:09:17.417Z,1.50
2018-01-19T07:11:45.548Z,1.50
2018-01-19T07:14:13.713Z,1.60
2018-01-19T07:16:41.856Z,1.60
2018-01-19T07:19:10.022Z,1.60
2018-01-19T07:21:38.154Z,1.60
2018-01-19T07:24:06.322Z,1.60
2018-01-19T07:26:34.444Z,1.60
2018-01-19T07:29:02.609Z,1.60
2018-01-19T07:31:30.757Z,1.60
2018-01-19T07:33:58.910Z,1.60
2018-01-19T07:36:27.038Z,1.60
2018-01-19T07:38:55.226Z,1.70
2018-01-19T07:41:23.357Z,1.70
2018-01-19T07:43:51.523Z,1.70
2018-01-19T07:46:19.668Z,1.70
2018-01-19T07:48:47.825Z,1.70
2018-01-19T07:51:15.958Z,1.70
2018-01-19T07:53:44.112Z,1.80
2018-01-19T07:56:12.241Z,1.80
2018-01-19T07:58:40.401Z,1.80
2018-01-19T08:01:08.534Z,1.80
2018-01-19T08:03:36.688Z,1.80
2018-01-19T08:06:04.817Z,1.80
2018-01-19T08:08:32.982Z,1.80
2018-01-19T08:11:01.117Z,1.80
2018-01-19T08:13:29.289Z,1.80
2018-01-19T08:15:57.418Z,1.90
2018-01-19T08:18:25.565Z,1.90
2018-01-19T08:20:53.706Z,1.90
2018-01-19T08:23:21.866Z,1.90
2018-01-19T08:25:49.999Z,1.90
2018-01-19T08:28:18.922Z,1.90
2018-01-19T08:30:47.052Z,1.90
2018-01-19T08:33:15.213Z,1.90
2018-01-19T08:35:43.341Z,1.90
2018-01-19T08:38:11.513Z,1.90
2018-01-19T08:40:39.668Z,2.00
2018-01-19T08:43:07.803Z,2.00
2018-01-19T08:45:35.962Z,2.00
2018-01-19T08:48:04.105Z,2.00
2018-01-19T08:50:32.298Z,2.00
2018-01-19T08:53:01.193Z,2.00
2018-01-19T08:55:29.404Z,2.00
2018-01-19T08:57:57.546Z,2.10
2018-01-19T09:00:25.700Z,2.10
2018-01-19T09:02:53.857Z,2.10
2018-01-19T09:05:22.017Z,2.10
2018-01-19T09:07:50.155Z,2.20
2018-01-19T09:10:18.316Z,2.20
2018-01-19T09:12:46.477Z,2.20
2018-01-19T09:15:15.429Z,2.20
2018-01-19T09:17:44.381Z,2.30
2018-01-19T09:20:12.537Z,2.20
2018-01-19T09:22:41.438Z,2.30
2018-01-19T09:25:09.626Z,2.30
2018-01-19T09:27:37.761Z,2.30
2018-01-19T09:30:05.921Z,2.30
2018-01-19T09:32:34.053Z,2.30
2018-01-19T09:35:02.214Z,2.30
2018-01-19T09:37:30.348Z,2.30
2018-01-19T09:39:58.513Z,2.30
2018-01-19T09:42:26.644Z,2.30
2018-01-19T09:44:55.566Z,2.30
2018-01-19T09:47:23.695Z,2.30
2018-01-19T09:49:51.867Z,2.40
2018-01-19T09:52:20.002Z,2.40
2018-01-19T09:54:48.152Z,2.40
2018-01-19T09:57:16.300Z,2.40
2018-01-19T09:59:44.469Z,2.50
2018-01-19T10:02:12.606Z,2.50
2018-01-19T10:04:40.759Z,2.60
2018-01-19T10:07:08.906Z,2.60
2018-01-19T10:09:37.076Z,2.60
2018-01-19T10:12:05.218Z,2.70
2018-01-19T10:14:33.414Z,2.70
2018-01-19T10:17:01.580Z,2.70
2018-01-19T10:19:29.759Z,2.70
2018-01-19T10:21:57.909Z,2.70
2018-01-19T10:24:26.066Z,2.70
2018-01-19T10:26:54.202Z,2.70
2018-01-19T10:29:22.364Z,2.70
2018-01-19T10:31:50.496Z,2.70
2018-01-19T10:34:18.653Z,2.70
2018-01-19T10:36:46.786Z,2.70
2018-01-19T10:39:14.957Z,2.70
2018-01-19T10:41:43.094Z,2.70
2018-01-19T10:44:11.244Z,2.70
2018-01-19T10:46:39.372Z,2.80
2018-01-19T10:49:07.542Z,2.80
2018-01-19T10:51:35.684Z,2.80
2018-01-19T10:54:03.845Z,2.80
2018-01-19T10:56:32.749Z,2.80
2018-01-19T10:59:00.942Z,2.80
2018-01-19T11:01:29.084Z,2.80
2018-01-19T11:03:57.236Z,2.80
2018-01-19T11:06:25.370Z,2.80
2018-01-19T11:08:53.511Z,2.80
2018-01-19T11:11:22.445Z,2.80
2018-01-19T11:13:50.583Z,2.80
2018-01-19T11:16:18.762Z,2.80
2018-01-19T11:18:46.910Z,2.80
2018-01-19T11:21:15.065Z,2.80
2018-01-19T11:23:43.197Z,2.80
2018-01-19T11:26:11.488Z,2.80
2018-01-19T11:28:39.637Z,2.80
2018-01-19T11:31:07.793Z,2.90
2018-01-19T11:33:35.912Z,2.90
2018-01-19T11:36:04.096Z,2.90
2018-01-19T11:38:32.273Z,2.90
2018-01-19T11:41:00.430Z,2.90
2018-01-19T11:43:28.573Z,2.90
2018-01-19T11:45:56.725Z,2.90
2018-01-19T11:48:25.620Z,2.90
2018-01-19T11:50:53.782Z,2.90
2018-01-19T11:53:22.682Z,3.00
2018-01-19T11:55:50.883Z,3.00
2018-01-19T11:58:18.993Z,3.00
2018-01-19T12:00:47.158Z,3.00
2018-01-19T12:03:15.281Z,3.00
2018-01-19T12:05:43.449Z,3.00
2018-01-19T12:08:12.341Z,2.90
2018-01-19T12:10:40.503Z,2.90
2018-01-19T12:13:09.401Z,2.90
2018-01-19T12:15:37.573Z,2.90
2018-01-19T12:18:06.478Z,2.90
2018-01-19T12:20:34.728Z,2.90
2018-01-19T12:23:02.870Z,2.90
2018-01-19T12:25:31.104Z,2.90
2018-01-19T12:27:59.247Z,2.90
2018-01-19T12:30:27.405Z,2.90
2018-01-19T12:32:55.594Z,3.00
2018-01-19T12:35:23.788Z,3.00
2018-01-19T12:37:51.949Z,3.00
2018-01-19T12:40:20.116Z,3.00
2018-01-19T12:42:49.074Z,3.00
2018-01-19T12:45:17.239Z,3.00
2018-01-19T12:47:45.383Z,3.00
2018-01-19T12:50:13.540Z,3.00
2018-01-19T12:52:41.685Z,2.90
2018-01-19T12:55:09.844Z,2.90
2018-01-19T12:57:37.983Z,2.90
2018-01-19T13:00:06.146Z,2.90
2018-01-19T13:02:34.282Z,3.00
2018-01-19T13:05:02.439Z,3.00
2018-01-19T13:07:30.561Z,3.00
2018-01-19T13:09:58.726Z,3.00
2018-01-19T13:12:26.861Z,3.00
2018-01-19T13:14:55.016Z,2.90
2018-01-19T13:17:23.149Z,2.90
2018-01-19T13:19:51.308Z,2.90
2018-01-19T13:22:19.444Z,2.90
2018-01-19T13:24:47.614Z,2.80
2018-01-19T13:27:15.772Z,2.80
2018-01-19T13:29:43.928Z,2.80
2018-01-19T13:32:12.062Z,2.80
2018-01-19T13:34:40.219Z,2.80
2018-01-19T13:37:08.397Z,2.80
2018-01-19T13:39:36.535Z,2.80
2018-01-19T13:42:04.680Z,2.80
2018-01-19T13:44:32.809Z,2.70
2018-01-19T13:47:01.014Z,2.70
2018-01-19T13:49:29.150Z,2.70
2018-01-19T13:51:57.305Z,2.70
2018-01-19T13:54:25.453Z,2.70
2018-01-19T13:56:53.615Z,2.70
2018-01-19T13:59:21.776Z,2.70
2018-01-19T14:01:50.704Z,2.60
2018-01-19T14:04:18.850Z,2.50
2018-01-19T14:06:47.773Z,2.60
2018-01-19T14:09:15.905Z,2.60
2018-01-19T14:11:44.833Z,2.50
2018-01-19T14:14:12.967Z,2.60
2018-01-19T14:16:41.895Z,2.50
2018-01-19T14:19:10.081Z,2.50
2018-01-19T14:21:38.265Z,2.50
2018-01-19T14:24:06.433Z,2.50
2018-01-19T14:26:34.605Z,2.50
2018-01-19T14:29:02.735Z,2.50
2018-01-19T14:31:30.888Z,2.50
2018-01-19T14:33:59.088Z,2.50
2018-01-19T14:36:28.035Z,2.50
2018-01-19T14:38:56.228Z,2.50
2018-01-19T14:41:24.394Z,2.50
2018-01-19T14:43:52.521Z,2.50
2018-01-19T14:46:20.673Z,2.50
2018-01-19T14:48:48.827Z,2.50
2018-01-19T14:51:16.993Z,2.50
2018-01-19T14:53:45.145Z,2.50
2018-01-19T14:56:13.306Z,2.50
2018-01-19T14:58:41.442Z,2.50
2018-01-19T15:01:09.612Z,2.50
2018-01-19T15:03:37.745Z,2.50
2018-01-19T15:06:05.966Z,2.50
2018-01-19T15:08:34.098Z,2.50
2018-01-19T15:11:02.271Z,2.50
2018-01-19T15:13:30.402Z,2.50
2018-01-19T15:15:58.630Z,2.50
2018-01-19T15:18:26.769Z,2.50
2018-01-19T15:20:54.999Z,2.50
2018-01-19T15:23:23.206Z,2.50
2018-01-19T15:25:51.470Z,2.50
2018-01-19T15:28:19.723Z,2.50
2018-01-19T15:30:48.697Z,2.50
2018-01-19T15:33:16.856Z,2.50
2018-01-19T15:35:45.018Z,2.50
2018-01-19T15:38:13.195Z,2.50
2018-01-19T15:40:41.367Z,2.50
2018-01-19T15:43:09.554Z,2.50
2018-01-19T15:45:37.737Z,2.50
2018-01-19T15:48:05.910Z,2.50
2018-01-19T15:50:34.089Z,2.50
2018-01-19T15:53:02.241Z,2.50
2018-01-19T15:55:30.397Z,2.50
2018-01-19T15:57:58.630Z,2.50
2018-01-19T16:00:26.767Z,2.50
2018-01-19T16:02:54.952Z,2.50
2018-01-19T16:05:23.162Z,2.50
2018-01-19T16:07:51.514Z,2.50
2018-01-19T16:10:19.677Z,2.50
2018-01-19T16:12:47.958Z,2.50
2018-01-19T16:15:16.207Z,2.50
2018-01-19T16:17:44.390Z,2.50
2018-01-19T16:20:12.842Z,2.50
2018-01-19T16:22:41.019Z,2.50
2018-01-19T16:25:09.214Z,2.50
2018-01-19T16:27:37.435Z,2.40
2018-01-19T16:30:05.608Z,2.40
2018-01-19T16:32:33.779Z,2.40
2018-01-19T16:35:01.981Z,2.40
2018-01-19T16:37:30.171Z,2.40
2018-01-19T16:39:58.308Z,2.40
2018-01-19T16:42:26.466Z,2.40
2018-01-19T16:44:55.384Z,2.30
2018-01-19T16:47:23.582Z,2.30
2018-01-19T16:49:51.736Z,2.30
2018-01-19T16:52:19.906Z,2.30
2018-01-19T16:54:48.037Z,2.30
2018-01-19T16:57:16.963Z,2.30
2018-01-19T16:59:45.097Z,2.30
2018-01-19T17:02:13.245Z,2.40
2018-01-19T17:04:41.390Z,2.30
2018-01-19T17:07:09.555Z,2.30
2018-01-19T17:09:37.709Z,2.40
2018-01-19T17:12:06.633Z,2.30
2018-01-19T17:14:34.800Z,2.30
2018-01-19T17:17:02.965Z,2.30
2018-01-19T17:19:31.119Z,2.30
2018-01-19T17:21:59.288Z,2.30
2018-01-19T17:24:28.189Z,2.30
2018-01-19T17:27:01.524Z,2.30
2018-01-19T17:29:29.666Z,2.30
2018-01-19T17:31:57.846Z,2.30
2018-01-19T17:34:26.008Z,2.30
2018-01-19T17:36:54.215Z,2.30
2018-01-19T17:39:22.440Z,2.30
2018-01-19T17:41:50.685Z,2.30
2018-01-19T17:44:19.499Z,2.30
2018-01-19T17:46:48.269Z,2.30
2018-01-19T17:49:17.666Z,2.30
2018-01-19T17:51:46.223Z,2.20
2018-01-19T17:54:14.601Z,2.30
2018-01-19T17:56:43.237Z,2.30
2018-01-19T17:59:12.106Z,2.30
2018-01-19T18:01:41.118Z,2.30
2018-01-19T18:04:09.650Z,2.30
2018-01-19T18:06:38.290Z,2.20
2018-01-19T18:09:07.119Z,2.20
2018-01-19T18:11:35.902Z,2.20
2018-01-19T18:14:04.904Z,2.20
2018-01-19T18:16:33.924Z,2.20
2018-01-19T18:19:02.101Z,2.20
2018-01-19T18:21:30.275Z,2.20
2018-01-19T18:23:58.428Z,2.10
2018-01-19T18:26:26.599Z,2.10
2018-01-19T18:28:54.751Z,2.10
2018-01-19T18:31:22.949Z,2.10
2018-01-19T18:33:51.086Z,2.10
2018-01-19T18:36:19.337Z,2.10
2018-01-19T18:38:47.992Z,2.00
2018-01-19T18:41:16.191Z,2.00
2018-01-19T18:43:44.365Z,2.00
2018-01-19T18:46:13.287Z,2.00
2018-01-19T18:48:41.947Z,2.00
2018-01-19T18:51:10.612Z,2.00
2018-01-19T18:53:39.026Z,1.90
2018-01-19T18:56:07.204Z,1.90
2018-01-19T18:58:35.365Z,1.90
2018-01-19T19:01:03.541Z,1.90
2018-01-19T19:03:31.742Z,1.80
2018-01-19T19:05:59.933Z,1.80
2018-01-19T19:08:28.068Z,1.80
2018-01-19T19:10:56.254Z,1.80
2018-01-19T19:13:24.438Z,1.80
2018-01-19T19:15:52.834Z,1.80
2018-01-19T19:18:21.138Z,1.80
2018-01-19T19:20:49.337Z,1.80
2018-01-19T19:23:17.959Z,1.80
2018-01-19T19:25:46.549Z,1.80
2018-01-19T19:28:14.759Z,1.80
2018-01-19T19:30:42.940Z,1.80
2018-01-19T19:33:11.882Z,1.80
2018-01-19T19:35:40.169Z,1.80
2018-01-19T19:38:08.368Z,1.80
2018-01-19T19:40:36.503Z,1.80
2018-01-19T19:43:04.786Z,1.80
2018-01-19T19:45:32.929Z,1.90
2018-01-19T19:48:01.086Z,1.90
2018-01-19T19:50:29.570Z,1.90
2018-01-19T19:52:57.966Z,1.90
2018-01-19T19:55:26.094Z,1.90
2018-01-19T19:57:54.253Z,1.90
2018-01-19T20:00:22.389Z,1.90
2018-01-19T20:02:50.570Z,1.90
2018-01-19T20:05:18.723Z,1.90
2018-01-19T20:07:47.770Z,1.90
2018-01-19T20:10:15.909Z,2.00
2018-01-19T20:12:44.092Z,2.00
2018-01-19T20:15:12.218Z,2.00
2018-01-19T20:17:41.136Z,2.00
2018-01-19T20:20:09.272Z,2.00
2018-01-19T20:22:38.225Z,2.00
2018-01-19T20:25:06.358Z,2.00
2018-01-19T20:27:34.514Z,2.00
2018-01-19T20:30:02.767Z,2.00
2018-01-19T20:32:30.925Z,2.10
2018-01-19T20:34:59.057Z,2.10
2018-01-19T20:37:27.209Z,2.10
2018-01-19T20:39:55.379Z,2.10
2018-01-19T20:42:23.540Z,2.10
2018-01-19T20:44:51.674Z,2.10
2018-01-19T20:47:19.832Z,2.10
2018-01-19T20:49:48.018Z,2.20
2018-01-19T20:52:16.150Z,2.20
2018-01-19T20:54:45.053Z,2.20
2018-01-19T20:57:14.075Z,2.20
2018-01-19T20:59:42.219Z,2.20
2018-01-19T21:02:11.170Z,2.20
2018-01-19T21:04:39.304Z,2.20
2018-01-19T21:07:07.483Z,2.10
2018-01-19T21:09:35.671Z,2.10
2018-01-19T21:12:03.807Z,2.10
2018-01-19T21:14:31.962Z,2.10
2018-01-19T21:17:00.099Z,2.00
2018-01-19T21:19:28.280Z,2.00
2018-01-19T21:21:56.460Z,2.00
2018-01-19T21:24:24.708Z,2.00
2018-01-19T21:26:52.956Z,2.00
2018-01-19T21:29:21.149Z,2.00
2018-01-19T21:31:49.337Z,1.90
2018-01-19T21:34:17.493Z,1.90
2018-01-19T21:36:45.665Z,2.00
2018-01-19T21:39:13.839Z,1.90
2018-01-19T21:41:42.009Z,2.00
2018-01-19T21:44:10.183Z,2.00
2018-01-19T21:46:38.368Z,2.10
2018-01-19T21:49:06.542Z,2.10
2018-01-19T21:51:35.464Z,2.20
2018-01-19T21:54:03.727Z,2.10
2018-01-19T21:56:31.906Z,2.10
2018-01-19T21:59:00.214Z,2.10
2018-01-19T22:01:28.547Z,2.10
2018-01-19T22:03:56.749Z,2.10
2018-01-19T22:06:24.936Z,2.00
2018-01-19T22:08:53.196Z,2.00
2018-01-19T22:11:21.453Z,1.90
2018-01-19T22:13:49.658Z,2.00
2018-01-19T22:16:17.808Z,1.90
2018-01-19T22:18:46.764Z,1.90
2018-01-19T22:21:14.909Z,2.00
2018-01-19T22:23:43.845Z,1.90
2018-01-19T22:26:12.038Z,1.90
2018-01-19T22:28:40.230Z,2.00
2018-01-19T22:31:08.384Z,2.00
2018-01-19T22:33:36.610Z,2.00
2018-01-19T22:36:04.740Z,2.10
2018-01-19T22:38:32.898Z,2.10
2018-01-19T22:41:01.026Z,2.10
2018-01-19T22:43:29.205Z,2.10
2018-01-19T22:45:57.334Z,2.20
2018-01-19T22:48:25.497Z,2.20
2018-01-19T22:50:53.630Z,2.20
2018-01-19T22:53:21.833Z,2.20
2018-01-19T22:55:49.974Z,2.20
2018-01-19T22:58:18.143Z,2.30
2018-01-19T23:00:46.313Z,2.30
2018-01-19T23:03:14.469Z,2.30
2018-01-19T23:05:42.595Z,2.30
2018-01-19T23:08:10.750Z,2.30
2018-01-19T23:10:38.886Z,2.30
2018-01-19T23:13:07.040Z,2.30
2018-01-19T23:15:35.185Z,2.30
2018-01-19T23:18:03.342Z,2.30
2018-01-19T23:20:31.504Z,2.30
2018-01-19T23:22:59.673Z,2.30
2018-01-19T23:25:27.832Z,2.40
2018-01-19T23:27:56.753Z,2.40
2018-01-19T23:30:24.895Z,2.40
2018-01-19T23:32:53.786Z,2.40
2018-01-19T23:35:21.954Z,2.40
2018-01-19T23:37:50.850Z,2.40
2018-01-19T23:40:19.006Z,2.40
2018-01-19T23:42:47.134Z,2.40
2018-01-19T23:45:15.317Z,2.40
2018-01-19T23:47:43.449Z,2.40
2018-01-19T23:50:11.641Z,2.40
2018-01-19T23:52:39.772Z,2.40
2018-01-19T23:55:07.954Z,2.40
2018-01-19T23:57:36.082Z,2.40
